createdAt,value
2017-06-28T00:01:59.639Z,12.97
2017-06-28T00:04:27.098Z,13.93
2017-06-28T00:06:54.562Z,12.73
2017-06-28T00:09:22.050Z,13.97
2017-06-28T00:11:49.542Z,14.87
2017-06-28T00:14:17.016Z,14.67
2017-06-28T00:16:44.506Z,14.20
2017-06-28T00:19:11.963Z,11.13
2017-06-28T00:21:39.429Z,13.20
2017-06-28T00:24:07.671Z,12.97
2017-06-28T00:26:35.132Z,14.03
2017-06-28T00:29:02.623Z,11.70
2017-06-28T00:31:30.135Z,11.60
2017-06-28T00:33:57.579Z,10.87
2017-06-28T00:36:25.043Z,12.73
2017-06-28T00:38:52.514Z,12.83
2017-06-28T00:41:19.971Z,12.50
2017-06-28T00:43:47.463Z,10.63
2017-06-28T00:46:15.707Z,13.50
2017-06-28T00:48:43.162Z,13.80
2017-06-28T00:51:10.652Z,11.37
2017-06-28T00:53:38.895Z,15.13
2017-06-28T00:56:06.358Z,11.20
2017-06-28T00:58:33.811Z,10.97
2017-06-28T01:01:01.286Z,12.20
2017-06-28T01:03:28.751Z,13.90
2017-06-28T01:05:56.202Z,12.20
2017-06-28T01:08:23.682Z,14.17
2017-06-28T01:10:51.147Z,16.03
2017-06-28T01:13:18.647Z,16.10
2017-06-28T01:15:46.142Z,16.30
2017-06-28T01:18:14.374Z,14.10
2017-06-28T01:20:41.836Z,14.03
2017-06-28T01:23:09.314Z,13.60
2017-06-28T01:25:36.778Z,11.10
2017-06-28T01:28:05.201Z,13.03
2017-06-28T01:30:32.674Z,12.20
2017-06-28T01:33:00.143Z,13.10
2017-06-28T01:35:27.598Z,14.00
2017-06-28T01:37:55.072Z,11.27
2017-06-28T01:40:23.302Z,14.17
2017-06-28T01:42:50.790Z,14.33
2017-06-28T01:45:18.271Z,14.40
2017-06-28T01:47:45.729Z,15.23
2017-06-28T01:50:13.205Z,11.47
2017-06-28T01:52:40.683Z,10.60
2017-06-28T01:55:08.147Z,14.57
2017-06-28T01:57:35.611Z,12.53
2017-06-28T02:00:03.086Z,13.00
2017-06-28T02:02:30.568Z,11.83
2017-06-28T02:04:58.801Z,12.87
2017-06-28T02:07:26.275Z,14.10
2017-06-28T02:09:53.734Z,13.37
2017-06-28T02:12:21.203Z,11.67
2017-06-28T02:14:48.694Z,15.03
2017-06-28T02:17:16.160Z,15.30
2017-06-28T02:19:43.631Z,18.20
2017-06-28T02:22:11.115Z,14.37
2017-06-28T02:24:38.578Z,14.20
2017-06-28T02:27:06.040Z,15.53
2017-06-28T02:29:34.291Z,12.40
2017-06-28T02:32:01.770Z,17.17
2017-06-28T02:34:29.284Z,15.23
2017-06-28T02:36:56.764Z,16.00
2017-06-28T02:39:24.223Z,12.40
2017-06-28T02:41:51.678Z,14.80
2017-06-28T02:44:19.174Z,16.00
2017-06-28T02:46:46.677Z,18.83
2017-06-28T02:49:14.135Z,13.73
2017-06-28T02:51:41.630Z,13.47
2017-06-28T02:54:09.086Z,13.50
2017-06-28T02:56:36.551Z,16.60
2017-06-28T02:59:04.027Z,14.07
2017-06-28T03:01:31.489Z,16.80
2017-06-28T03:03:58.949Z,16.17
2017-06-28T03:06:26.446Z,16.07
2017-06-28T03:08:53.960Z,16.00
2017-06-28T03:11:22.270Z,13.17
2017-06-28T03:13:49.746Z,16.23
2017-06-28T03:16:17.224Z,14.50
2017-06-28T03:18:44.692Z,18.00
2017-06-28T03:21:12.182Z,18.20
2017-06-28T03:23:39.647Z,11.57
2017-06-28T03:26:07.106Z,14.97
2017-06-28T03:28:34.597Z,16.40
2017-06-28T03:31:02.066Z,21.10
2017-06-28T03:33:30.298Z,12.87
2017-06-28T03:35:57.791Z,13.80
2017-06-28T03:38:26.038Z,15.70
2017-06-28T03:40:53.497Z,17.23
2017-06-28T03:43:20.971Z,14.40
2017-06-28T03:45:48.430Z,15.10
2017-06-28T03:48:16.667Z,15.10
2017-06-28T03:50:44.146Z,17.63
2017-06-28T03:53:11.611Z,14.23
2017-06-28T03:55:39.083Z,13.90
2017-06-28T03:58:07.331Z,19.70
2017-06-28T04:00:34.819Z,12.90
2017-06-28T04:03:03.220Z,12.47
2017-06-28T04:05:30.714Z,13.63
2017-06-28T04:07:58.194Z,19.73
2017-06-28T04:10:25.650Z,14.37
2017-06-28T04:12:53.138Z,16.10
2017-06-28T04:15:20.607Z,12.77
2017-06-28T04:17:48.076Z,14.07
2017-06-28T04:20:15.554Z,13.87
2017-06-28T04:22:43.018Z,14.27
2017-06-28T04:25:10.499Z,14.73
2017-06-28T04:27:37.978Z,17.93
2017-06-28T04:30:05.453Z,15.37
2017-06-28T04:32:34.031Z,15.00
2017-06-28T04:35:01.527Z,14.60
2017-06-28T04:37:28.983Z,14.30
2017-06-28T04:39:56.466Z,15.20
2017-06-28T04:42:23.942Z,17.37
2017-06-28T04:44:51.408Z,17.07
2017-06-28T04:47:18.862Z,17.03
2017-06-28T04:49:46.378Z,21.33
2017-06-28T04:52:13.850Z,22.63
2017-06-28T04:54:42.283Z,24.53
2017-06-28T04:57:09.766Z,29.40
2017-06-28T04:59:37.222Z,20.70
2017-06-28T05:02:04.702Z,30.47
2017-06-28T05:04:32.162Z,26.37
2017-06-28T05:07:00.431Z,26.63
2017-06-28T05:09:27.907Z,31.90
2017-06-28T05:11:56.170Z,24.33
2017-06-28T05:14:23.623Z,21.87
2017-06-28T05:16:51.878Z,21.77
2017-06-28T05:19:19.340Z,29.40
2017-06-28T05:21:46.815Z,23.57
2017-06-28T05:24:15.076Z,25.50
2017-06-28T05:26:42.579Z,27.93
2017-06-28T05:29:10.044Z,26.67
2017-06-28T05:31:37.528Z,29.07
2017-06-28T05:34:04.988Z,25.83
2017-06-28T05:36:32.462Z,22.93
2017-06-28T05:38:59.954Z,25.30
2017-06-28T05:41:27.408Z,24.20
2017-06-28T05:43:55.805Z,23.23
2017-06-28T05:46:23.293Z,24.73
2017-06-28T05:48:50.775Z,25.47
2017-06-28T05:51:19.010Z,23.33
2017-06-28T05:53:46.490Z,23.47
2017-06-28T05:56:13.966Z,24.03
2017-06-28T05:58:41.434Z,27.23
2017-06-28T06:01:08.919Z,25.67
2017-06-28T06:03:36.382Z,21.70
2017-06-28T06:06:03.860Z,25.57
2017-06-28T06:08:31.334Z,25.03
2017-06-28T06:10:58.807Z,27.00
2017-06-28T06:13:27.110Z,29.20
2017-06-28T06:15:54.590Z,24.97
2017-06-28T06:18:22.067Z,24.00
2017-06-28T06:20:49.531Z,29.60
2017-06-28T06:23:17.015Z,28.37
2017-06-28T06:25:45.243Z,25.97
2017-06-28T06:28:12.742Z,27.13
2017-06-28T06:30:40.997Z,36.20
2017-06-28T06:33:08.650Z,27.30
2017-06-28T06:35:36.111Z,32.90
2017-06-28T06:38:03.622Z,30.10
2017-06-28T06:40:31.091Z,25.80
2017-06-28T06:42:58.548Z,29.53
2017-06-28T06:45:26.036Z,28.87
2017-06-28T06:47:53.494Z,27.53
2017-06-28T06:50:20.954Z,28.80
2017-06-28T06:52:48.442Z,25.50
2017-06-28T06:55:15.908Z,26.23
2017-06-28T06:57:43.380Z,27.60
2017-06-28T07:00:10.918Z,29.60
2017-06-28T07:02:39.144Z,33.47
2017-06-28T07:05:06.612Z,31.70
2017-06-28T07:07:34.103Z,29.30
2017-06-28T07:10:01.556Z,28.60
2017-06-28T07:12:29.022Z,27.87
2017-06-28T07:14:56.514Z,29.03
2017-06-28T07:17:23.990Z,28.80
2017-06-28T07:19:51.505Z,28.87
2017-06-28T07:22:19.031Z,29.37
2017-06-28T07:24:46.491Z,33.23
2017-06-28T07:27:15.658Z,29.97
2017-06-28T07:29:43.139Z,29.27
2017-06-28T07:32:10.603Z,34.70
2017-06-28T07:34:38.184Z,31.80
2017-06-28T07:37:05.670Z,36.10
2017-06-28T07:39:33.134Z,32.77
2017-06-28T07:42:00.625Z,34.60
2017-06-28T07:44:28.090Z,34.43
2017-06-28T07:46:55.583Z,37.50
2017-06-28T07:49:23.058Z,44.50
2017-06-28T07:51:50.512Z,35.20
2017-06-28T07:54:17.976Z,33.53
2017-06-28T07:56:45.478Z,33.30
2017-06-28T07:59:13.852Z,36.37
2017-06-28T08:01:42.111Z,39.93
2017-06-28T08:04:09.591Z,42.03
2017-06-28T08:06:37.062Z,35.23
2017-06-28T08:09:04.530Z,40.90
2017-06-28T08:11:32.010Z,43.20
2017-06-28T08:13:59.471Z,35.80
2017-06-28T08:16:26.928Z,47.00
2017-06-28T08:18:54.415Z,44.00
2017-06-28T08:21:21.871Z,44.60
2017-06-28T08:23:49.342Z,36.50
2017-06-28T08:26:16.871Z,44.10
2017-06-28T08:28:44.339Z,39.03
2017-06-28T08:31:11.806Z,37.87
2017-06-28T08:33:39.619Z,45.03
2017-06-28T08:36:07.078Z,39.50
2017-06-28T08:38:34.539Z,40.63
2017-06-28T08:41:02.060Z,39.93
2017-06-28T08:43:30.283Z,46.10
2017-06-28T08:45:57.746Z,42.63
2017-06-28T08:48:25.230Z,43.10
2017-06-28T08:50:52.685Z,41.60
2017-06-28T08:53:20.138Z,44.70
2017-06-28T08:55:47.638Z,55.60
2017-06-28T08:58:15.103Z,50.47
2017-06-28T09:00:42.603Z,53.90
2017-06-28T09:03:10.099Z,56.20
2017-06-28T09:05:37.576Z,51.53
2017-06-28T09:08:05.065Z,69.43
2017-06-28T09:10:32.554Z,58.00
2017-06-28T09:13:00.831Z,63.53
2017-06-28T09:15:29.058Z,61.07
2017-06-28T09:17:56.763Z,61.20
2017-06-28T09:20:24.224Z,60.67
2017-06-28T09:22:52.455Z,65.80
2017-06-28T09:25:19.930Z,64.67
2017-06-28T09:27:47.394Z,63.30
2017-06-28T09:30:14.850Z,67.47
2017-06-28T09:32:43.113Z,58.60
2017-06-28T09:35:10.587Z,60.00
2017-06-28T09:37:38.049Z,63.37
2017-06-28T09:40:05.538Z,67.43
2017-06-28T09:42:33.010Z,66.73
2017-06-28T09:45:00.466Z,68.03
2017-06-28T09:47:28.030Z,68.10
2017-06-28T09:49:55.739Z,76.70
2017-06-28T09:52:23.199Z,68.10
2017-06-28T09:54:50.684Z,65.40
2017-06-28T09:57:18.159Z,74.30
2017-06-28T09:59:45.610Z,72.87
2017-06-28T10:02:29.384Z,77.63
2017-06-28T10:04:57.835Z,67.63
2017-06-28T10:07:26.366Z,66.33
2017-06-28T10:09:55.979Z,67.80
2017-06-28T10:12:24.430Z,76.00
2017-06-28T10:14:51.911Z,76.77
2017-06-28T10:17:20.278Z,79.63
2017-06-28T10:19:47.838Z,73.43
2017-06-28T10:22:15.302Z,66.20
2017-06-28T10:24:43.547Z,75.50
2017-06-28T10:27:15.147Z,68.43
2017-06-28T10:29:43.663Z,58.50
2017-06-28T10:32:11.147Z,62.90
2017-06-28T10:34:38.627Z,62.53
2017-06-28T10:37:06.857Z,62.93
2017-06-28T10:39:34.332Z,60.63
2017-06-28T10:42:01.798Z,59.00
2017-06-28T10:44:29.268Z,58.53
2017-06-28T10:46:56.732Z,60.30
2017-06-28T10:49:25.163Z,58.40
2017-06-28T10:51:52.626Z,49.53
2017-06-28T10:54:20.096Z,53.93
2017-06-28T10:56:47.576Z,50.83
2017-06-28T10:59:15.042Z,52.60
2017-06-28T11:01:43.275Z,54.40
2017-06-28T11:04:10.766Z,53.50
2017-06-28T11:06:39.010Z,52.40
2017-06-28T11:09:06.486Z,48.50
2017-06-28T11:11:33.960Z,51.27
2017-06-28T11:14:02.203Z,46.60
2017-06-28T11:16:29.687Z,45.90
2017-06-28T11:18:57.162Z,43.40
2017-06-28T11:21:24.647Z,47.90
2017-06-28T11:23:52.130Z,45.30
2017-06-28T11:26:19.605Z,49.20
2017-06-28T11:28:47.067Z,45.60
2017-06-28T11:31:14.537Z,43.27
2017-06-28T11:33:42.060Z,40.30
2017-06-28T11:36:09.527Z,38.00
2017-06-28T11:38:36.997Z,38.37
2017-06-28T11:41:04.474Z,33.70
2017-06-28T11:43:31.947Z,39.40
2017-06-28T11:45:59.418Z,32.60
2017-06-28T11:48:26.894Z,33.47
2017-06-28T11:50:54.362Z,37.90
2017-06-28T11:53:21.843Z,34.10
2017-06-28T11:55:50.095Z,31.60
2017-06-28T11:58:17.566Z,32.93
2017-06-28T12:00:45.039Z,34.57
2017-06-28T12:03:12.583Z,32.33
2017-06-28T12:05:40.044Z,28.80
2017-06-28T12:08:08.284Z,29.20
2017-06-28T12:10:35.802Z,23.63
2017-06-28T12:13:03.284Z,29.97
2017-06-28T12:15:30.767Z,25.30
2017-06-28T12:17:58.247Z,32.20
2017-06-28T12:20:26.482Z,29.87
2017-06-28T12:22:53.966Z,28.67
2017-06-28T12:25:21.434Z,29.77
2017-06-28T12:27:49.662Z,29.77
2017-06-28T12:30:17.130Z,24.90
2017-06-28T12:32:44.609Z,25.37
2017-06-28T12:35:12.172Z,30.07
2017-06-28T12:37:39.635Z,30.33
2017-06-28T12:40:07.107Z,30.00
2017-06-28T12:42:34.576Z,38.53
2017-06-28T12:45:02.116Z,47.40
2017-06-28T12:47:29.646Z,43.93
2017-06-28T12:49:58.019Z,43.77
2017-06-28T12:52:25.492Z,47.53
2017-06-28T12:54:52.986Z,64.03
2017-06-28T12:57:20.445Z,57.13
2017-06-28T12:59:47.911Z,48.83
2017-06-28T13:02:15.390Z,48.87
2017-06-28T13:04:42.900Z,48.33
2017-06-28T13:07:10.371Z,45.03
2017-06-28T13:09:37.853Z,47.07
2017-06-28T13:12:05.323Z,49.20
2017-06-28T13:14:32.803Z,53.47
2017-06-28T13:17:00.282Z,55.07
2017-06-28T13:19:27.753Z,51.30
2017-06-28T13:21:55.256Z,45.47
2017-06-28T13:24:25.945Z,45.37
2017-06-28T13:26:53.410Z,47.93
2017-06-28T13:29:20.895Z,48.27
2017-06-28T13:31:48.359Z,46.10
2017-06-28T13:34:15.849Z,41.67
2017-06-28T13:36:44.087Z,43.70
2017-06-28T13:39:11.601Z,45.00
2017-06-28T13:41:39.077Z,41.97
2017-06-28T13:44:06.551Z,38.93
2017-06-28T13:46:34.015Z,39.20
2017-06-28T13:49:01.491Z,38.63
2017-06-28T13:51:28.954Z,37.97
2017-06-28T13:53:56.436Z,36.60
2017-06-28T13:56:23.918Z,35.40
2017-06-28T13:58:51.407Z,32.37
2017-06-28T14:01:20.349Z,35.17
2017-06-28T14:03:47.814Z,35.57
2017-06-28T14:06:15.283Z,31.97
2017-06-28T14:08:42.788Z,29.17
2017-06-28T14:11:11.023Z,31.00
2017-06-28T14:13:38.492Z,31.60
2017-06-28T14:16:05.958Z,26.83
2017-06-28T14:18:33.450Z,27.50
2017-06-28T14:21:01.691Z,26.73
2017-06-28T14:23:29.175Z,22.93
2017-06-28T14:25:57.415Z,24.27
2017-06-28T14:28:24.886Z,24.50
2017-06-28T14:30:52.351Z,26.80
2017-06-28T14:33:19.815Z,24.33
2017-06-28T14:35:47.297Z,26.40
2017-06-28T14:38:14.760Z,23.53
2017-06-28T14:40:42.234Z,21.07
2017-06-28T14:43:09.716Z,22.83
2017-06-28T14:45:37.190Z,22.50
2017-06-28T14:48:04.654Z,25.00
2017-06-28T14:50:32.906Z,26.37
2017-06-28T14:53:00.383Z,22.43
2017-06-28T14:55:27.850Z,25.00
2017-06-28T14:57:56.101Z,18.43
2017-06-28T15:00:23.580Z,20.70
2017-06-28T15:02:51.814Z,20.30
2017-06-28T15:05:19.303Z,17.10
2017-06-28T15:07:46.772Z,22.97
2017-06-28T15:10:15.005Z,20.90
2017-06-28T15:12:42.498Z,21.03
2017-06-28T15:15:09.966Z,23.97
2017-06-28T15:17:37.452Z,20.67
2017-06-28T15:20:04.951Z,21.93
2017-06-28T15:22:32.423Z,23.93
2017-06-28T15:24:59.896Z,23.73
2017-06-28T15:27:27.376Z,21.57
2017-06-28T15:29:54.851Z,24.73
2017-06-28T15:32:22.333Z,26.03
2017-06-28T15:34:49.803Z,22.77
2017-06-28T15:37:17.303Z,27.47
2017-06-28T15:39:44.773Z,26.73
2017-06-28T15:42:12.267Z,31.47
2017-06-28T15:44:39.738Z,25.27
2017-06-28T15:47:07.202Z,27.93
2017-06-28T15:49:34.689Z,26.67
2017-06-28T15:52:02.173Z,26.37
2017-06-28T15:54:33.444Z,27.27
2017-06-28T15:57:00.973Z,23.53
2017-06-28T15:59:28.452Z,29.10
2017-06-28T16:01:55.971Z,26.20
2017-06-28T16:04:23.657Z,25.50
2017-06-28T16:06:51.133Z,28.20
2017-06-28T16:09:18.597Z,31.80
2017-06-28T16:11:46.824Z,28.40
2017-06-28T16:14:14.359Z,35.03
2017-06-28T16:16:41.842Z,33.70
2017-06-28T16:19:09.324Z,31.37
2017-06-28T16:21:36.836Z,31.47
2017-06-28T16:24:04.414Z,33.43
2017-06-28T16:26:31.894Z,36.20
2017-06-28T16:28:59.372Z,29.00
2017-06-28T16:31:26.842Z,31.00
2017-06-28T16:33:54.321Z,32.87
2017-06-28T16:36:21.802Z,30.73
2017-06-28T16:38:49.277Z,32.23
2017-06-28T16:41:16.754Z,28.37
2017-06-28T16:43:44.435Z,34.53
2017-06-28T16:46:11.907Z,32.10
2017-06-28T16:48:40.111Z,32.10
2017-06-28T16:51:08.249Z,33.67
2017-06-28T16:53:36.294Z,28.63
2017-06-28T16:56:04.518Z,34.73
2017-06-28T16:58:31.993Z,31.97
2017-06-28T17:00:59.486Z,29.30
2017-06-28T17:03:26.981Z,28.70
2017-06-28T17:05:54.462Z,25.60
2017-06-28T17:08:22.178Z,28.57
2017-06-28T17:10:49.684Z,27.03
2017-06-28T17:13:17.170Z,26.40
2017-06-28T17:15:44.726Z,28.03
2017-06-28T17:18:12.188Z,23.60
2017-06-28T17:20:39.691Z,25.23
2017-06-28T17:23:07.154Z,21.53
2017-06-28T17:25:34.639Z,21.20
2017-06-28T17:28:02.118Z,24.27
2017-06-28T17:30:29.608Z,24.50
2017-06-28T17:32:57.089Z,26.67
2017-06-28T17:35:24.598Z,21.43
2017-06-28T17:37:52.067Z,21.90
2017-06-28T17:40:19.570Z,23.30
2017-06-28T17:42:47.404Z,22.23
2017-06-28T17:45:19.063Z,19.30
2017-06-28T17:47:53.715Z,21.60
2017-06-28T17:50:24.794Z,28.60
2017-06-28T17:52:54.189Z,22.00
2017-06-28T17:55:24.552Z,19.97
2017-06-28T17:57:53.559Z,19.80
2017-06-28T18:00:21.315Z,19.63
2017-06-28T18:02:48.870Z,16.80
2017-06-28T18:05:16.335Z,14.30
2017-06-28T18:07:43.811Z,16.37
2017-06-28T18:10:11.315Z,16.00
2017-06-28T18:12:38.822Z,18.77
2017-06-28T18:15:06.282Z,15.50
2017-06-28T18:17:33.890Z,14.60
2017-06-28T18:20:01.374Z,13.27
2017-06-28T18:22:28.875Z,16.37
2017-06-28T18:24:56.345Z,12.83
2017-06-28T18:27:24.590Z,11.57
2017-06-28T18:29:52.063Z,10.53
2017-06-28T18:32:19.532Z,11.80
2017-06-28T18:34:47.015Z,13.70
2017-06-28T18:37:14.543Z,11.57
2017-06-28T18:39:42.267Z,12.80
2017-06-28T18:42:09.790Z,13.80
2017-06-28T18:44:37.337Z,13.03
2017-06-28T18:47:04.810Z,14.37
2017-06-28T18:49:32.324Z,17.97
2017-06-28T18:51:59.783Z,18.53
2017-06-28T18:54:27.283Z,13.93
2017-06-28T18:56:54.762Z,14.40
2017-06-28T18:59:22.247Z,14.30
2017-06-28T19:01:49.715Z,18.60
2017-06-28T19:04:17.180Z,20.40
2017-06-28T19:06:44.666Z,18.47
2017-06-28T19:09:12.431Z,21.33
2017-06-28T19:11:39.907Z,14.37
2017-06-28T19:14:07.370Z,13.70
2017-06-28T19:16:34.955Z,14.73
2017-06-28T19:19:02.473Z,15.03
2017-06-28T19:21:29.946Z,16.40
2017-06-28T19:23:57.427Z,19.93
2017-06-28T19:26:24.896Z,15.27
2017-06-28T19:28:53.207Z,20.60
2017-06-28T19:31:20.741Z,18.97
2017-06-28T19:33:48.214Z,15.43
2017-06-28T19:36:16.533Z,17.60
2017-06-28T19:38:44.003Z,15.73
2017-06-28T19:41:11.482Z,15.57
2017-06-28T19:43:39.722Z,14.83
2017-06-28T19:46:07.190Z,14.20
2017-06-28T19:48:34.661Z,16.43
2017-06-28T19:51:02.243Z,15.50
2017-06-28T19:53:30.498Z,16.83
2017-06-28T19:55:58.079Z,12.23
2017-06-28T19:58:25.627Z,14.70
2017-06-28T20:00:53.098Z,20.43
2017-06-28T20:03:20.562Z,12.90
2017-06-28T20:05:48.048Z,12.63
2017-06-28T20:08:15.547Z,14.13
2017-06-28T20:10:43.774Z,16.93
2017-06-28T20:13:11.261Z,14.40
2017-06-28T20:15:38.732Z,16.63
2017-06-28T20:18:06.250Z,13.17
2017-06-28T20:20:33.727Z,14.20
2017-06-28T20:23:01.207Z,12.10
2017-06-28T20:25:28.671Z,13.77
2017-06-28T20:27:56.902Z,10.90
2017-06-28T20:30:24.371Z,9.83
2017-06-28T20:32:52.748Z,13.07
2017-06-28T20:35:20.282Z,10.60
2017-06-28T20:37:47.742Z,14.40
2017-06-28T20:40:15.233Z,15.97
2017-06-28T20:42:42.734Z,12.37
2017-06-28T20:45:10.230Z,11.40
2017-06-28T20:47:37.697Z,18.00
2017-06-28T20:50:05.278Z,28.83
2017-06-28T20:52:32.831Z,17.60
2017-06-28T20:55:00.314Z,15.50
2017-06-28T20:57:27.811Z,16.00
2017-06-28T20:59:55.299Z,13.17
2017-06-28T21:02:22.770Z,14.70
2017-06-28T21:04:51.019Z,13.00
2017-06-28T21:07:21.293Z,15.20
2017-06-28T21:09:49.278Z,15.83
2017-06-28T21:12:16.793Z,17.20
2017-06-28T21:14:44.322Z,16.87
2017-06-28T21:17:11.791Z,16.97
2017-06-28T21:19:39.351Z,17.73
2017-06-28T21:22:06.819Z,15.30
2017-06-28T21:24:35.063Z,27.67
2017-06-28T21:27:02.683Z,17.90
2017-06-28T21:29:30.335Z,20.07
2017-06-28T21:31:57.863Z,22.37
2017-06-28T21:34:25.361Z,17.63
2017-06-28T21:36:52.824Z,19.03
2017-06-28T21:39:20.319Z,17.43
2017-06-28T21:41:47.894Z,27.63
2017-06-28T21:44:15.371Z,20.47
2017-06-28T21:46:43.626Z,18.57
2017-06-28T21:49:11.098Z,18.20
2017-06-28T21:51:39.387Z,20.20
2017-06-28T21:54:06.919Z,17.07
2017-06-28T21:56:34.396Z,23.53
2017-06-28T21:59:02.670Z,18.77
2017-06-28T22:01:30.943Z,21.10
2017-06-28T22:03:59.203Z,19.10
2017-06-28T22:06:26.759Z,19.23
2017-06-28T22:08:54.315Z,20.23
2017-06-28T22:11:21.875Z,22.47
2017-06-28T22:13:49.344Z,23.20
2017-06-28T22:16:17.615Z,19.50
2017-06-28T22:18:57.867Z,14.60
2017-06-28T22:21:25.417Z,18.53
2017-06-28T22:23:52.886Z,14.77
2017-06-28T22:26:21.173Z,20.80
2017-06-28T22:28:48.615Z,18.83
2017-06-28T22:31:16.895Z,17.97
2017-06-28T22:33:44.450Z,15.33
2017-06-28T22:36:12.705Z,18.10
2017-06-28T22:38:40.308Z,12.37
2017-06-28T22:41:07.846Z,11.83
2017-06-28T22:43:35.323Z,15.43
2017-06-28T22:46:02.800Z,14.57
2017-06-28T22:48:30.306Z,13.80
2017-06-28T22:50:57.799Z,13.57
2017-06-28T22:53:25.333Z,15.37
2017-06-28T22:55:53.566Z,12.57
2017-06-28T22:58:21.039Z,11.70
2017-06-28T23:00:48.511Z,13.37
2017-06-28T23:03:16.071Z,9.60
2017-06-28T23:05:43.544Z,10.13
2017-06-28T23:08:11.811Z,10.63
2017-06-28T23:10:39.373Z,14.73
2017-06-28T23:13:07.642Z,11.13
2017-06-28T23:15:35.111Z,12.00
2017-06-28T23:18:03.482Z,9.37
2017-06-28T23:20:31.750Z,8.80
2017-06-28T23:22:59.215Z,11.17
2017-06-28T23:25:27.490Z,9.90
2017-06-28T23:27:55.758Z,8.27
2017-06-28T23:30:23.214Z,7.43
2017-06-28T23:32:51.482Z,10.20
2017-06-28T23:35:18.939Z,9.37
2017-06-28T23:37:46.406Z,9.67
2017-06-28T23:40:14.671Z,7.10
2017-06-28T23:42:42.139Z,6.90
2017-06-28T23:45:10.407Z,7.80
2017-06-28T23:47:37.871Z,6.80
2017-06-28T23:50:06.131Z,6.53
2017-06-28T23:52:34.280Z,6.77
2017-06-28T23:55:01.779Z,7.90
2017-06-28T23:57:30.023Z,7.03
2017-06-28T23:59:57.507Z,7.90
